createdAt,value
2019-01-18T00:00:18.164Z,94.20
2019-01-18T00:02:44.415Z,94.30
2019-01-18T00:05:10.752Z,94.20
2019-01-18T00:07:37.068Z,94.10
2019-01-18T00:10:07.165Z,93.80
2019-01-18T00:12:33.428Z,93.80
2019-01-18T00:14:59.722Z,94.00
2019-01-18T00:17:25.999Z,93.70
2019-01-18T00:19:52.257Z,94.00
2019-01-18T00:22:18.501Z,94.00
2019-01-18T00:24:44.788Z,94.30
2019-01-18T00:27:11.148Z,94.00
2019-01-18T00:29:37.444Z,93.70
2019-01-18T00:32:03.812Z,94.60
2019-01-18T00:34:30.069Z,94.00
2019-01-18T00:36:56.351Z,93.90
2019-01-18T00:39:22.611Z,94.10
2019-01-18T00:41:49.075Z,94.70
2019-01-18T00:44:15.456Z,95.00
2019-01-18T00:46:44.790Z,94.90
2019-01-18T00:49:11.049Z,94.90
2019-01-18T00:51:37.465Z,94.80
2019-01-18T00:54:03.850Z,94.90
2019-01-18T00:56:30.128Z,94.70
2019-01-18T00:58:56.395Z,94.70
2019-01-18T01:01:22.696Z,94.70
2019-01-18T01:03:50.452Z,94.30
2019-01-18T01:06:16.749Z,94.10
2019-01-18T01:08:43.145Z,93.80
2019-01-18T01:11:09.493Z,93.60
2019-01-18T01:13:35.884Z,93.80
2019-01-18T01:16:02.373Z,93.80
2019-01-18T01:18:28.756Z,93.90
2019-01-18T01:20:55.136Z,94.00
2019-01-18T01:23:21.588Z,93.80
2019-01-18T01:25:47.966Z,94.20
2019-01-18T01:28:14.244Z,95.20
2019-01-18T01:30:40.698Z,95.60
2019-01-18T01:33:07.802Z,96.10
2019-01-18T01:35:34.204Z,96.70
2019-01-18T01:38:00.464Z,96.90
2019-01-18T01:40:27.055Z,97.20
2019-01-18T01:42:53.739Z,97.40
2019-01-18T01:45:20.512Z,96.70
2019-01-18T01:47:47.010Z,97.60
2019-01-18T01:50:16.574Z,98.20
2019-01-18T01:52:42.860Z,98.10
2019-01-18T01:55:09.315Z,98.60
2019-01-18T01:57:35.584Z,98.90
2019-01-18T02:00:05.784Z,99.00
2019-01-18T02:02:32.191Z,99.60
2019-01-18T02:04:58.444Z,99.60
2019-01-18T02:07:24.960Z,99.90
2019-01-18T02:09:51.274Z,99.90
2019-01-18T02:12:17.700Z,99.30
2019-01-18T02:14:44.021Z,99.20
2019-01-18T02:17:10.299Z,99.90
2019-01-18T02:19:36.596Z,99.90
2019-01-18T02:22:03.053Z,99.90
2019-01-18T02:24:29.512Z,99.90
2019-01-18T02:26:55.797Z,99.90
2019-01-18T02:29:22.154Z,99.90
2019-01-18T02:31:48.566Z,99.90
2019-01-18T02:34:14.838Z,99.90
2019-01-18T02:36:41.456Z,99.90
2019-01-18T02:39:07.875Z,99.90
2019-01-18T02:41:34.353Z,99.90
2019-01-18T02:44:00.721Z,99.90
2019-01-18T02:46:27.036Z,99.90
2019-01-18T02:48:53.311Z,99.90
2019-01-18T02:51:19.685Z,99.90
2019-01-18T02:53:46.080Z,99.90
2019-01-18T02:56:12.435Z,99.90
2019-01-18T02:58:38.898Z,99.90
2019-01-18T03:01:05.175Z,99.90
2019-01-18T03:03:31.527Z,99.90
2019-01-18T03:05:57.858Z,99.90
2019-01-18T03:08:24.222Z,99.90
2019-01-18T03:10:50.579Z,99.90
2019-01-18T03:13:16.969Z,99.90
2019-01-18T03:15:43.295Z,99.90
2019-01-18T03:18:09.641Z,99.90
2019-01-18T03:20:36.001Z,99.90
2019-01-18T03:23:02.614Z,99.90
2019-01-18T03:25:28.894Z,99.90
2019-01-18T03:27:55.378Z,99.90
2019-01-18T03:30:21.848Z,99.90
2019-01-18T03:32:48.492Z,99.90
2019-01-18T03:35:16.950Z,99.90
2019-01-18T03:37:43.459Z,99.90
2019-01-18T03:40:29.605Z,99.80
2019-01-18T03:42:55.905Z,99.90
2019-01-18T03:45:22.257Z,99.70
2019-01-18T03:47:48.805Z,99.50
2019-01-18T03:50:23.688Z,99.60
2019-01-18T03:52:50.150Z,99.50
2019-01-18T03:55:16.633Z,99.20
2019-01-18T03:57:43.002Z,99.30
2019-01-18T04:00:26.941Z,99.50
2019-01-18T04:02:53.491Z,99.10
2019-01-18T04:05:19.987Z,98.90
2019-01-18T04:07:46.492Z,99.00
2019-01-18T04:10:15.579Z,99.20
2019-01-18T04:12:41.933Z,99.00
2019-01-18T04:15:11.721Z,98.90
2019-01-18T04:17:37.977Z,98.80
2019-01-18T04:20:07.868Z,98.70
2019-01-18T04:22:34.140Z,98.70
2019-01-18T04:25:00.507Z,98.60
2019-01-18T04:27:26.780Z,98.90
2019-01-18T04:29:53.048Z,98.80
2019-01-18T04:32:19.342Z,98.30
2019-01-18T04:34:45.587Z,98.30
2019-01-18T04:37:11.865Z,98.30
2019-01-18T04:39:38.154Z,98.20
2019-01-18T04:42:04.435Z,98.30
2019-01-18T04:44:30.720Z,98.30
2019-01-18T04:46:57.124Z,98.30
2019-01-18T04:49:23.481Z,97.90
2019-01-18T04:51:49.747Z,98.10
2019-01-18T04:54:16.031Z,98.20
2019-01-18T04:56:42.391Z,98.10
2019-01-18T04:59:08.743Z,98.20
2019-01-18T05:01:35.054Z,98.20
2019-01-18T05:04:01.387Z,97.80
2019-01-18T05:06:27.633Z,98.20
2019-01-18T05:08:53.945Z,97.60
2019-01-18T05:11:20.241Z,97.80
2019-01-18T05:13:46.503Z,97.80
2019-01-18T05:16:13.166Z,98.20
2019-01-18T05:18:39.441Z,98.50
2019-01-18T05:21:05.808Z,98.20
2019-01-18T05:23:32.200Z,98.30
2019-01-18T05:25:58.560Z,97.60
2019-01-18T05:28:24.969Z,97.30
2019-01-18T05:30:51.348Z,97.00
2019-01-18T05:33:17.735Z,96.40
2019-01-18T05:35:44.026Z,96.50
2019-01-18T05:38:10.421Z,96.50
2019-01-18T05:40:36.709Z,96.50
2019-01-18T05:43:03.194Z,96.30
2019-01-18T05:45:30.580Z,96.50
2019-01-18T05:47:56.980Z,96.10
2019-01-18T05:50:25.676Z,96.20
2019-01-18T05:52:52.056Z,96.10
2019-01-18T05:55:18.544Z,96.00
2019-01-18T05:57:45.050Z,96.00
2019-01-18T06:00:19.756Z,95.50
2019-01-18T06:02:46.061Z,95.40
2019-01-18T06:05:15.111Z,95.40
2019-01-18T06:07:41.544Z,95.20
2019-01-18T06:10:08.165Z,95.30
2019-01-18T06:12:34.450Z,95.40
2019-01-18T06:15:00.706Z,94.90
2019-01-18T06:17:27.022Z,94.90
2019-01-18T06:19:53.366Z,94.80
2019-01-18T06:22:19.642Z,94.80
2019-01-18T06:24:46.033Z,94.70
2019-01-18T06:27:12.403Z,95.00
2019-01-18T06:29:38.773Z,94.80
2019-01-18T06:32:05.144Z,94.70
2019-01-18T06:34:31.563Z,94.50
2019-01-18T06:36:57.910Z,94.40
2019-01-18T06:39:24.168Z,94.60
2019-01-18T06:41:50.853Z,94.50
2019-01-18T06:44:17.112Z,94.60
2019-01-18T06:46:43.412Z,94.70
2019-01-18T06:49:10.561Z,94.70
2019-01-18T06:51:36.853Z,94.00
2019-01-18T06:54:03.377Z,94.20
2019-01-18T06:56:29.643Z,94.00
2019-01-18T06:58:56.036Z,94.10
2019-01-18T07:01:22.527Z,93.90
2019-01-18T07:03:48.877Z,94.00
2019-01-18T07:06:15.191Z,93.60
2019-01-18T07:08:41.683Z,93.40
2019-01-18T07:11:08.265Z,93.60
2019-01-18T07:13:34.630Z,93.40
2019-01-18T07:16:01.068Z,93.50
2019-01-18T07:18:27.443Z,93.10
2019-01-18T07:20:53.800Z,93.40
2019-01-18T07:23:20.137Z,93.30
2019-01-18T07:25:46.397Z,93.10
2019-01-18T07:28:12.894Z,93.20
2019-01-18T07:30:40.800Z,93.40
2019-01-18T07:33:07.268Z,93.00
2019-01-18T07:35:33.654Z,92.90
2019-01-18T07:38:00.154Z,93.00
2019-01-18T07:40:26.504Z,92.90
2019-01-18T07:42:52.977Z,93.20
2019-01-18T07:45:24.596Z,93.30
2019-01-18T07:47:50.940Z,93.30
2019-01-18T07:50:20.107Z,92.90
2019-01-18T07:52:45.723Z,92.90
2019-01-18T07:55:12.187Z,92.40
2019-01-18T07:57:38.605Z,92.70
2019-01-18T08:00:11.719Z,92.70
2019-01-18T08:02:38.189Z,92.40
2019-01-18T08:05:06.664Z,92.50
2019-01-18T08:07:33.066Z,92.60
2019-01-18T08:09:59.532Z,92.30
2019-01-18T08:12:26.032Z,91.80
2019-01-18T08:14:52.415Z,92.20
2019-01-18T08:17:18.738Z,92.20
2019-01-18T08:19:45.031Z,92.10
2019-01-18T08:22:11.460Z,91.90
2019-01-18T08:24:37.737Z,92.10
2019-01-18T08:27:04.241Z,92.10
2019-01-18T08:29:30.516Z,92.00
2019-01-18T08:31:57.025Z,92.10
2019-01-18T08:34:23.276Z,92.10
2019-01-18T08:36:49.774Z,91.80
2019-01-18T08:39:16.237Z,91.80
2019-01-18T08:41:42.610Z,91.30
2019-01-18T08:44:09.106Z,91.60
2019-01-18T08:46:35.656Z,91.90
2019-01-18T08:49:02.148Z,92.00
2019-01-18T08:51:28.509Z,92.10
2019-01-18T08:53:54.862Z,92.00
2019-01-18T08:56:21.357Z,92.00
2019-01-18T08:58:47.619Z,91.70
2019-01-18T09:01:13.998Z,91.30
2019-01-18T09:03:40.401Z,91.10
2019-01-18T09:06:06.753Z,91.20
2019-01-18T09:08:33.137Z,90.90
2019-01-18T09:10:59.620Z,90.30
2019-01-18T09:13:25.992Z,90.40
2019-01-18T09:15:52.276Z,90.80
2019-01-18T09:18:18.744Z,90.70
2019-01-18T09:20:45.116Z,91.10
2019-01-18T09:23:11.402Z,91.50
2019-01-18T09:25:37.771Z,91.50
2019-01-18T09:28:04.232Z,91.50
2019-01-18T09:30:33.016Z,91.80
2019-01-18T09:33:00.419Z,91.40
2019-01-18T09:35:26.922Z,91.90
2019-01-18T09:37:55.379Z,91.90
2019-01-18T09:40:23.954Z,92.10
2019-01-18T09:42:50.428Z,91.80
2019-01-18T09:45:16.896Z,92.10
2019-01-18T09:47:43.396Z,91.90
2019-01-18T09:50:13.073Z,92.20
2019-01-18T09:52:39.653Z,92.20
2019-01-18T09:55:08.042Z,91.80
2019-01-18T09:57:34.412Z,92.10
2019-01-18T10:00:00.659Z,91.80
2019-01-18T10:02:27.065Z,92.00
2019-01-18T10:04:53.467Z,91.40
2019-01-18T10:07:19.853Z,91.50
2019-01-18T10:09:46.146Z,91.10
2019-01-18T10:12:12.456Z,90.90
2019-01-18T10:14:38.997Z,90.80
2019-01-18T10:17:05.364Z,90.60
2019-01-18T10:19:31.750Z,91.10
2019-01-18T10:21:58.162Z,91.30
2019-01-18T10:24:24.532Z,91.60
2019-01-18T10:26:50.886Z,91.30
2019-01-18T10:29:17.188Z,91.10
2019-01-18T10:31:43.480Z,90.70
2019-01-18T10:34:09.748Z,91.30
2019-01-18T10:36:36.044Z,91.80
2019-01-18T10:39:05.997Z,92.50
2019-01-18T10:41:32.255Z,92.70
2019-01-18T10:43:58.569Z,92.40
2019-01-18T10:46:24.948Z,92.20
2019-01-18T10:49:11.112Z,91.10
2019-01-18T10:51:37.475Z,90.70
2019-01-18T10:54:03.828Z,91.50
2019-01-18T10:56:30.211Z,91.30
2019-01-18T10:58:56.572Z,90.90
2019-01-18T11:01:23.042Z,91.50
2019-01-18T11:03:49.433Z,91.10
2019-01-18T11:06:15.689Z,91.10
2019-01-18T11:08:41.968Z,91.10
2019-01-18T11:11:08.368Z,91.30
2019-01-18T11:13:34.629Z,91.40
2019-01-18T11:16:01.017Z,91.50
2019-01-18T11:18:27.426Z,91.10
2019-01-18T11:20:55.007Z,91.30
2019-01-18T11:23:21.265Z,90.20
2019-01-18T11:25:47.625Z,90.10
2019-01-18T11:28:13.912Z,91.00
2019-01-18T11:30:40.285Z,91.70
2019-01-18T11:33:06.766Z,91.60
2019-01-18T11:35:33.155Z,91.90
2019-01-18T11:37:59.676Z,91.20
2019-01-18T11:40:25.988Z,91.20
2019-01-18T11:42:52.543Z,91.10
2019-01-18T11:45:18.997Z,90.80
2019-01-18T11:47:45.500Z,90.30
2019-01-18T11:50:14.196Z,90.20
2019-01-18T11:52:40.693Z,90.20
2019-01-18T11:55:07.195Z,91.20
2019-01-18T11:57:33.512Z,91.00
2019-01-18T12:00:00.002Z,91.20
2019-01-18T12:02:26.395Z,91.10
2019-01-18T12:04:52.814Z,90.70
2019-01-18T12:07:19.286Z,90.90
2019-01-18T12:09:45.670Z,92.00
2019-01-18T12:12:12.523Z,90.80
2019-01-18T12:14:38.909Z,90.20
2019-01-18T12:17:05.294Z,90.20
2019-01-18T12:19:31.663Z,90.50
2019-01-18T12:21:57.982Z,90.10
2019-01-18T12:24:24.220Z,90.00
2019-01-18T12:26:50.623Z,89.60
2019-01-18T12:29:17.159Z,88.00
2019-01-18T12:31:43.695Z,87.00
2019-01-18T12:34:09.980Z,86.00
2019-01-18T12:36:36.529Z,87.50
2019-01-18T12:39:06.618Z,84.10
2019-01-18T12:41:32.954Z,85.30
2019-01-18T12:43:59.382Z,82.30
2019-01-18T12:46:25.753Z,81.60
2019-01-18T12:48:52.228Z,82.90
2019-01-18T12:51:18.645Z,80.10
2019-01-18T12:53:44.920Z,82.00
2019-01-18T12:56:11.358Z,82.00
2019-01-18T12:58:37.823Z,81.00
2019-01-18T13:01:04.241Z,80.40
2019-01-18T13:03:30.729Z,80.00
2019-01-18T13:05:57.306Z,80.50
2019-01-18T13:08:23.818Z,78.50
2019-01-18T13:10:50.145Z,81.00
2019-01-18T13:13:16.650Z,80.50
2019-01-18T13:16:01.265Z,80.40
2019-01-18T13:18:27.583Z,79.80
2019-01-18T13:20:54.032Z,77.40
2019-01-18T13:23:20.330Z,76.00
2019-01-18T13:25:46.711Z,73.20
2019-01-18T13:28:13.272Z,73.60
2019-01-18T13:30:39.584Z,74.00
2019-01-18T13:33:05.824Z,75.80
2019-01-18T13:35:32.434Z,75.50
2019-01-18T13:37:58.798Z,76.80
2019-01-18T13:40:25.365Z,76.30
2019-01-18T13:42:51.837Z,74.80
2019-01-18T13:45:18.425Z,73.90
2019-01-18T13:47:45.610Z,75.60
2019-01-18T13:50:14.928Z,75.00
2019-01-18T13:52:41.560Z,75.60
2019-01-18T13:55:20.046Z,74.50
2019-01-18T13:57:46.584Z,75.00
2019-01-18T14:00:13.636Z,74.80
2019-01-18T14:02:40.683Z,77.00
2019-01-18T14:05:09.821Z,77.40
2019-01-18T14:07:37.808Z,77.20
2019-01-18T14:10:08.883Z,76.60
2019-01-18T14:12:35.459Z,75.90
2019-01-18T14:15:02.237Z,75.20
2019-01-18T14:17:28.627Z,75.30
2019-01-18T14:19:55.117Z,72.70
2019-01-18T14:22:21.536Z,68.60
2019-01-18T14:24:47.903Z,69.10
2019-01-18T14:27:14.331Z,65.80
2019-01-18T14:29:40.750Z,63.70
2019-01-18T14:32:07.127Z,64.00
2019-01-18T14:34:33.597Z,63.90
2019-01-18T14:37:00.113Z,62.90
2019-01-18T14:39:26.488Z,65.70
2019-01-18T14:41:52.801Z,68.80
2019-01-18T14:44:19.216Z,65.70
2019-01-18T14:46:45.547Z,63.90
2019-01-18T14:49:12.727Z,65.70
2019-01-18T14:51:39.136Z,65.90
2019-01-18T14:54:05.434Z,60.10
2019-01-18T14:56:33.820Z,56.40
2019-01-18T14:59:00.225Z,57.40
2019-01-18T15:01:26.586Z,54.60
2019-01-18T15:03:54.166Z,55.10
2019-01-18T15:06:20.525Z,56.20
2019-01-18T15:08:46.924Z,58.00
2019-01-18T15:11:13.697Z,59.50
2019-01-18T15:13:40.179Z,60.40
2019-01-18T15:16:06.881Z,61.80
2019-01-18T15:18:33.767Z,63.20
2019-01-18T15:21:00.140Z,63.70
2019-01-18T15:23:26.427Z,67.20
2019-01-18T15:25:52.738Z,68.60
2019-01-18T15:28:19.097Z,67.00
2019-01-18T15:30:45.467Z,66.90
2019-01-18T15:33:12.002Z,70.60
2019-01-18T15:35:38.497Z,70.30
2019-01-18T15:38:05.521Z,69.80
2019-01-18T15:40:35.425Z,70.80
2019-01-18T15:43:02.314Z,71.50
2019-01-18T15:45:29.003Z,72.80
2019-01-18T15:47:55.407Z,73.50
2019-01-18T15:50:27.220Z,73.00
2019-01-18T15:52:53.767Z,74.30
2019-01-18T15:55:20.333Z,75.10
2019-01-18T15:57:46.900Z,75.30
2019-01-18T16:00:31.833Z,76.20
2019-01-18T16:02:58.359Z,76.20
2019-01-18T16:05:24.860Z,75.60
2019-01-18T16:07:51.244Z,75.70
2019-01-18T16:10:17.662Z,76.30
2019-01-18T16:12:44.078Z,77.20
2019-01-18T16:15:19.786Z,77.60
2019-01-18T16:17:47.773Z,76.70
2019-01-18T16:20:16.556Z,77.00
2019-01-18T16:22:43.343Z,77.70
2019-01-18T16:25:13.801Z,78.60
2019-01-18T16:27:40.109Z,79.00
2019-01-18T16:30:10.284Z,79.30
2019-01-18T16:32:36.674Z,79.80
2019-01-18T16:35:06.073Z,80.10
2019-01-18T16:37:32.443Z,80.30
2019-01-18T16:39:59.001Z,81.00
2019-01-18T16:42:25.737Z,80.90
2019-01-18T16:44:52.147Z,81.50
2019-01-18T16:47:18.796Z,82.00
2019-01-18T16:49:45.356Z,82.90
2019-01-18T16:52:12.092Z,83.20
2019-01-18T16:54:38.713Z,83.50
2019-01-18T16:57:05.075Z,83.60
2019-01-18T16:59:31.529Z,83.90
2019-01-18T17:01:57.961Z,84.20
2019-01-18T17:04:24.532Z,84.30
2019-01-18T17:06:51.208Z,84.50
2019-01-18T17:09:17.826Z,84.80
2019-01-18T17:11:44.548Z,85.00
2019-01-18T17:14:11.038Z,85.30
2019-01-18T17:16:37.656Z,85.60
2019-01-18T17:19:04.236Z,85.70
2019-01-18T17:21:30.723Z,85.70
2019-01-18T17:23:57.128Z,85.90
2019-01-18T17:26:23.560Z,86.10
2019-01-18T17:28:50.021Z,86.10
2019-01-18T17:31:16.500Z,86.30
2019-01-18T17:33:42.795Z,86.70
2019-01-18T17:36:16.599Z,86.90
2019-01-18T17:39:09.130Z,87.80
2019-01-18T17:41:48.236Z,87.10
2019-01-18T17:44:38.193Z,87.20
2019-01-18T17:47:20.172Z,87.40
2019-01-18T17:50:20.500Z,87.70
2019-01-18T17:53:05.529Z,88.00
2019-01-18T17:55:41.043Z,87.90
2019-01-18T17:58:22.543Z,88.00
2019-01-18T18:00:52.658Z,88.10
2019-01-18T18:03:36.472Z,88.90
2019-01-18T18:06:06.613Z,88.40
2019-01-18T18:08:54.232Z,88.50
2019-01-18T18:11:33.423Z,88.50
2019-01-18T18:14:30.979Z,88.70
2019-01-18T18:17:09.746Z,88.70
2019-01-18T18:19:45.596Z,88.80
2019-01-18T18:22:18.463Z,88.80
2019-01-18T18:25:08.451Z,89.10
2019-01-18T18:27:53.927Z,89.20
2019-01-18T18:30:26.789Z,89.30
2019-01-18T18:33:09.079Z,89.20
2019-01-18T18:35:39.221Z,89.40
2019-01-18T18:38:27.681Z,89.40
2019-01-18T18:41:06.581Z,89.50
2019-01-18T18:43:51.272Z,89.80
2019-01-18T18:46:47.275Z,89.80
2019-01-18T18:49:26.426Z,89.80
2019-01-18T18:52:11.336Z,90.00
2019-01-18T18:54:49.928Z,89.90
2019-01-18T18:57:26.315Z,90.00
2019-01-18T19:00:04.910Z,90.10
2019-01-18T19:02:35.019Z,90.20
2019-01-18T19:05:21.851Z,90.10
2019-01-18T19:08:00.725Z,90.20
2019-01-18T19:10:39.574Z,90.20
2019-01-18T19:13:30.563Z,90.10
2019-01-18T19:16:06.478Z,90.00
2019-01-18T19:19:14.737Z,90.00
2019-01-18T19:22:01.816Z,90.10
2019-01-18T19:24:40.992Z,90.20
2019-01-18T19:27:27.585Z,90.30
2019-01-18T19:30:06.508Z,90.30
2019-01-18T19:33:03.911Z,90.30
2019-01-18T19:35:40.105Z,90.30
2019-01-18T19:38:19.171Z,90.20
2019-01-18T19:41:04.206Z,90.30
2019-01-18T19:43:49.327Z,90.30
2019-01-18T19:46:40.479Z,90.20
2019-01-18T19:49:16.616Z,90.20
2019-01-18T19:51:55.787Z,90.30
2019-01-18T19:54:31.926Z,90.20
2019-01-18T19:57:11.215Z,90.10
2019-01-18T19:59:47.102Z,90.20
2019-01-18T20:02:20.273Z,90.30
2019-01-18T20:05:06.869Z,90.30
2019-01-18T20:07:54.612Z,90.30
2019-01-18T20:10:27.407Z,90.20
2019-01-18T20:13:20.467Z,90.30
2019-01-18T20:16:11.971Z,90.20
2019-01-18T20:18:56.711Z,90.30
2019-01-18T20:21:26.859Z,90.40
2019-01-18T20:24:06.036Z,90.40
2019-01-18T20:27:06.835Z,90.40
2019-01-18T20:29:54.805Z,90.50
2019-01-18T20:32:33.699Z,90.40
2019-01-18T20:35:26.797Z,90.40
2019-01-18T20:37:59.917Z,90.50
2019-01-18T20:40:46.705Z,90.30
2019-01-18T20:43:19.969Z,90.60
2019-01-18T20:45:59.174Z,90.40
2019-01-18T20:48:32.430Z,90.40
2019-01-18T20:51:25.304Z,90.40
2019-01-18T20:54:01.387Z,90.40
2019-01-18T20:56:40.366Z,90.30
2019-01-18T20:59:13.360Z,90.30
2019-01-18T21:01:58.803Z,90.40
2019-01-18T21:04:51.950Z,90.40
2019-01-18T21:07:24.800Z,90.30
2019-01-18T21:10:28.294Z,90.20
2019-01-18T21:13:06.834Z,90.20
2019-01-18T21:15:42.750Z,90.30
2019-01-18T21:18:18.665Z,90.30
2019-01-18T21:20:51.302Z,90.40
2019-01-18T21:23:36.526Z,90.30
2019-01-18T21:26:09.488Z,90.30
2019-01-18T21:29:08.117Z,90.30
2019-01-18T21:31:58.056Z,90.30
2019-01-18T21:34:50.534Z,90.10
2019-01-18T21:37:29.395Z,90.10
2019-01-18T21:39:59.474Z,90.00
2019-01-18T21:42:32.399Z,90.00
2019-01-18T21:45:32.518Z,90.10
2019-01-18T21:48:14.682Z,90.20
2019-01-18T21:50:53.941Z,90.20
2019-01-18T21:53:36.148Z,90.10
2019-01-18T21:56:09.014Z,90.20
2019-01-18T21:58:39.101Z,90.20
2019-01-18T22:01:24.305Z,89.90
2019-01-18T22:04:06.721Z,90.00
2019-01-18T22:06:42.760Z,90.00
2019-01-18T22:09:22.016Z,89.90
2019-01-18T22:11:57.983Z,90.00
2019-01-18T22:14:36.927Z,90.10
2019-01-18T22:17:24.983Z,90.00
2019-01-18T22:20:22.213Z,90.00
2019-01-18T22:22:57.952Z,90.00
2019-01-18T22:25:46.204Z,89.80
2019-01-18T22:28:19.227Z,90.00
2019-01-18T22:30:55.300Z,90.00
2019-01-18T22:33:25.425Z,90.00
2019-01-18T22:36:01.443Z,90.00
2019-01-18T22:38:34.545Z,90.00
2019-01-18T22:41:19.683Z,90.10
2019-01-18T22:43:49.804Z,90.10
2019-01-18T22:46:43.803Z,90.10
2019-01-18T22:49:30.430Z,90.10
2019-01-18T22:52:20.272Z,90.00
2019-01-18T22:54:56.097Z,90.10
2019-01-18T22:57:32.032Z,90.20
2019-01-18T23:00:41.780Z,90.20
2019-01-18T23:03:11.905Z,90.20
2019-01-18T23:05:44.954Z,90.10
2019-01-18T23:08:26.840Z,90.20
2019-01-18T23:10:56.941Z,90.30
2019-01-18T23:13:44.966Z,90.40
2019-01-18T23:16:43.982Z,90.40
2019-01-18T23:19:37.120Z,90.30
2019-01-18T23:22:13.198Z,90.40
2019-01-18T23:24:52.365Z,90.60
2019-01-18T23:27:34.380Z,90.60
2019-01-18T23:30:13.769Z,90.50
2019-01-18T23:32:52.399Z,90.40
2019-01-18T23:35:39.255Z,90.30
2019-01-18T23:38:12.160Z,90.10
2019-01-18T23:41:08.064Z,90.20
2019-01-18T23:43:41.250Z,90.30
2019-01-18T23:46:17.240Z,90.10
2019-01-18T23:49:05.795Z,90.30
2019-01-18T23:51:53.862Z,90.30
2019-01-18T23:54:36.043Z,90.30
2019-01-18T23:57:14.923Z,90.20
